sensor_id;sensor_type;location;lat;lon;timestamp;pressure;altitude;pressure_sealevel;temperature;humidity
24013;BME280;12220;50.194;18.948;2023-06-05T00:01:44;102357.45;;;13.43;48.18
24013;BME280;12220;50.194;18.948;2023-06-05T00:03:46;102359.29;;;13.42;48.23
24013;BME280;12220;50.194;18.948;2023-06-05T00:05:56;102354.68;;;13.43;48.22
24013;BME280;12220;50.194;18.948;2023-06-05T00:08:00;102355.56;;;13.43;48.24
24013;BME280;12220;50.194;18.948;2023-06-05T00:10:01;102354.68;;;13.43;48.23
24013;BME280;12220;50.194;18.948;2023-06-05T00:12:06;102362.95;;;13.43;48.30
24013;BME280;12220;50.194;18.948;2023-06-05T00:14:11;102351.76;;;13.46;48.38
24013;BME280;12220;50.194;18.948;2023-06-05T00:16:13;102355.40;;;13.47;48.44
24013;BME280;12220;50.194;18.948;2023-06-05T00:18:18;102348.83;;;13.49;48.43
24013;BME280;12220;50.194;18.948;2023-06-05T00:20:19;102355.40;;;13.47;48.38
24013;BME280;12220;50.194;18.948;2023-06-05T00:22:26;102360.20;;;13.43;48.30
24013;BME280;12220;50.194;18.948;2023-06-05T00:24:32;102355.15;;;13.34;48.33
24013;BME280;12220;50.194;18.948;2023-06-05T00:26:33;102358.43;;;13.24;48.49
24013;BME280;12220;50.194;18.948;2023-06-05T00:28:35;102355.47;;;13.12;48.67
24013;BME280;12220;50.194;18.948;2023-06-05T00:30:43;102358.82;;;13.01;48.81
24013;BME280;12220;50.194;18.948;2023-06-05T00:32:44;102361.00;;;12.94;49.04
24013;BME280;12220;50.194;18.948;2023-06-05T00:34:46;102349.30;;;12.90;49.16
24013;BME280;12220;50.194;18.948;2023-06-05T00:36:57;102349.30;;;12.90;49.28
24013;BME280;12220;50.194;18.948;2023-06-05T00:38:59;102361.09;;;12.93;49.36
24013;BME280;12220;50.194;18.948;2023-06-05T00:41:01;102353.67;;;12.95;49.46
24013;BME280;12220;50.194;18.948;2023-06-05T00:43:04;102354.45;;;12.97;49.50
24013;BME280;12220;50.194;18.948;2023-06-05T00:45:12;102357.03;;;13.00;49.46
24013;BME280;12220;50.194;18.948;2023-06-05T00:47:16;102359.70;;;13.01;49.41
24013;BME280;12220;50.194;18.948;2023-06-05T00:49:19;102356.07;;;13.01;49.36
24013;BME280;12220;50.194;18.948;2023-06-05T00:51:21;102339.83;;;12.96;49.45
24013;BME280;12220;50.194;18.948;2023-06-05T00:53:28;102350.09;;;12.93;49.32
24013;BME280;12220;50.194;18.948;2023-06-05T00:55:31;102347.68;;;12.86;49.42
24013;BME280;12220;50.194;18.948;2023-06-05T00:57:33;102348.02;;;12.80;49.56
24013;BME280;12220;50.194;18.948;2023-06-05T00:59:37;102350.95;;;12.77;49.68
24013;BME280;12220;50.194;18.948;2023-06-05T01:01:45;102345.58;;;12.74;49.68
24013;BME280;12220;50.194;18.948;2023-06-05T01:03:48;102351.24;;;12.71;49.74
24013;BME280;12220;50.194;18.948;2023-06-05T01:05:52;102344.21;;;12.65;49.83
24013;BME280;12220;50.194;18.948;2023-06-05T01:08:04;102341.79;;;12.59;49.96
24013;BME280;12220;50.194;18.948;2023-06-05T01:10:07;102340.18;;;12.55;50.10
24013;BME280;12220;50.194;18.948;2023-06-05T01:12:27;102340.51;;;12.49;50.14
24013;BME280;12220;50.194;18.948;2023-06-05T01:14:30;102333.55;;;12.42;50.26
24013;BME280;12220;50.194;18.948;2023-06-05T01:16:34;102311.73;;;12.03;50.41
24013;BME280;12220;50.194;18.948;2023-06-05T01:18:37;102334.14;;;12.31;50.61
24013;BME280;12220;50.194;18.948;2023-06-05T01:20:46;102333.30;;;12.29;50.75
24013;BME280;12220;50.194;18.948;2023-06-05T01:22:49;102331.63;;;12.26;50.76
24013;BME280;12220;50.194;18.948;2023-06-05T01:24:53;102337.04;;;12.28;50.82
24013;BME280;12220;50.194;18.948;2023-06-05T01:29:11;102326.22;;;12.25;50.98
24013;BME280;12220;50.194;18.948;2023-06-05T01:31:21;102327.34;;;12.20;51.09
24013;BME280;12220;50.194;18.948;2023-06-05T01:33:30;102335.08;;;12.12;51.28
24013;BME280;12220;50.194;18.948;2023-06-05T01:35:35;102336.52;;;12.02;51.42
24013;BME280;12220;50.194;18.948;2023-06-05T01:37:40;102335.13;;;11.93;51.58
24013;BME280;12220;50.194;18.948;2023-06-05T01:39:49;102335.49;;;11.85;51.78
24013;BME280;12220;50.194;18.948;2023-06-05T01:42:01;102339.43;;;11.80;51.90
24013;BME280;12220;50.194;18.948;2023-06-05T01:44:03;102338.75;;;11.75;52.04
24013;BME280;12220;50.194;18.948;2023-06-05T01:46:09;102334.25;;;11.74;52.13
24013;BME280;12220;50.194;18.948;2023-06-05T01:48:11;102339.66;;;11.75;52.24
24013;BME280;12220;50.194;18.948;2023-06-05T01:50:17;102341.26;;;11.79;52.21
24013;BME280;12220;50.194;18.948;2023-06-05T01:52:19;102338.31;;;11.84;52.18
24013;BME280;12220;50.194;18.948;2023-06-05T01:54:20;102303.46;;;11.67;52.16
24013;BME280;12220;50.194;18.948;2023-06-05T01:56:27;102335.13;;;11.93;52.14
24013;BME280;12220;50.194;18.948;2023-06-05T01:58:31;102334.01;;;11.97;52.07
24013;BME280;12220;50.194;18.948;2023-06-05T02:00:32;102337.55;;;11.99;52.01
24013;BME280;12220;50.194;18.948;2023-06-05T02:02:36;102333.93;;;11.99;52.07
24013;BME280;12220;50.194;18.948;2023-06-05T02:04:40;102342.89;;;12.02;52.03
24013;BME280;12220;50.194;18.948;2023-06-05T02:06:45;102339.26;;;12.02;51.96
24013;BME280;12220;50.194;18.948;2023-06-05T02:08:49;102335.72;;;12.00;52.02
24013;BME280;12220;50.194;18.948;2023-06-05T02:10:51;102346.75;;;11.98;52.05
24013;BME280;12220;50.194;18.948;2023-06-05T02:12:54;102339.50;;;11.97;52.11
24013;BME280;12220;50.194;18.948;2023-06-05T02:15:00;102329.39;;;11.98;52.11
24013;BME280;12220;50.194;18.948;2023-06-05T02:17:03;102337.55;;;11.99;52.10
24013;BME280;12220;50.194;18.948;2023-06-05T02:19:07;102333.84;;;12.00;52.10
24013;BME280;12220;50.194;18.948;2023-06-05T02:21:09;102338.38;;;12.01;52.08
24013;BME280;12220;50.194;18.948;2023-06-05T02:23:15;102340.06;;;12.04;52.06
24013;BME280;12220;50.194;18.948;2023-06-05T02:25:18;102339.10;;;12.05;52.10
24013;BME280;12220;50.194;18.948;2023-06-05T02:27:21;102335.39;;;12.06;52.07
24013;BME280;12220;50.194;18.948;2023-06-05T02:29:27;102335.31;;;12.08;52.07
24013;BME280;12220;50.194;18.948;2023-06-05T02:31:30;102338.94;;;12.08;52.02
24013;BME280;12220;50.194;18.948;2023-06-05T02:33:32;102336.28;;;12.07;52.12
24013;BME280;12220;50.194;18.948;2023-06-05T02:35:34;102339.98;;;12.06;52.14
24013;BME280;12220;50.194;18.948;2023-06-05T02:37:41;102342.81;;;12.04;52.23
24013;BME280;12220;50.194;18.948;2023-06-05T02:39:45;102340.22;;;12.01;52.20
24013;BME280;12220;50.194;18.948;2023-06-05T02:41:47;102338.59;;;11.97;52.27
24013;BME280;12220;50.194;18.948;2023-06-05T02:43:48;102334.16;;;11.94;52.35
24013;BME280;12220;50.194;18.948;2023-06-05T02:45:49;102339.66;;;11.94;52.38
24013;BME280;12220;50.194;18.948;2023-06-05T02:48:00;102329.64;;;11.93;52.37
24013;BME280;12220;50.194;18.948;2023-06-05T02:50:02;102340.54;;;11.95;52.41
24013;BME280;12220;50.194;18.948;2023-06-05T02:52:07;102340.54;;;11.95;52.45
24013;BME280;12220;50.194;18.948;2023-06-05T02:54:09;102335.93;;;11.95;52.47
24013;BME280;12220;50.194;18.948;2023-06-05T02:56:15;102336.84;;;11.96;52.43
24013;BME280;12220;50.194;18.948;2023-06-05T02:58:19;102340.45;;;11.96;52.45
24013;BME280;12220;50.194;18.948;2023-06-05T03:00:22;102334.97;;;11.96;52.51
24013;BME280;12220;50.194;18.948;2023-06-05T03:02:23;102342.33;;;11.96;52.56
24013;BME280;12220;50.194;18.948;2023-06-05T03:04:30;102342.41;;;11.94;52.54
24013;BME280;12220;50.194;18.948;2023-06-05T03:06:34;102338.79;;;11.92;52.61
24013;BME280;12220;50.194;18.948;2023-06-05T03:08:36;102337.09;;;11.90;52.68
24013;BME280;12220;50.194;18.948;2023-06-05T03:10:38;102336.45;;;11.84;52.77
24013;BME280;12220;50.194;18.948;2023-06-05T03:12:45;102332.23;;;11.77;52.85
24013;BME280;12220;50.194;18.948;2023-06-05T03:14:46;102339.78;;;11.72;53.01
24013;BME280;12220;50.194;18.948;2023-06-05T03:16:48;102340.02;;;11.67;53.18
24013;BME280;12220;50.194;18.948;2023-06-05T03:18:49;102341.88;;;11.67;53.28
24013;BME280;12220;50.194;18.948;2023-06-05T03:21:00;102336.40;;;11.67;53.29
24013;BME280;12220;50.194;18.948;2023-06-05T03:23:02;102340.93;;;11.68;53.36
24013;BME280;12220;50.194;18.948;2023-06-05T03:25:04;102342.84;;;11.66;53.41
24013;BME280;12220;50.194;18.948;2023-06-05T03:27:05;102340.24;;;11.63;53.50
24013;BME280;12220;50.194;18.948;2023-06-05T03:29:15;102339.45;;;11.61;53.57
24013;BME280;12220;50.194;18.948;2023-06-05T03:31:17;102332.24;;;11.58;53.69
24013;BME280;12220;50.194;18.948;2023-06-05T03:33:21;102337.73;;;11.58;53.75
24013;BME280;12220;50.194;18.948;2023-06-05T03:35:23;102097.60;;;10.21;53.80
24013;BME280;12220;50.194;18.948;2023-06-05T03:37:30;102336.70;;;11.61;53.88
24013;BME280;12220;50.194;18.948;2023-06-05T03:39:31;102339.45;;;11.61;53.95
24013;BME280;12220;50.194;18.948;2023-06-05T03:41:33;102334.99;;;11.58;54.07
24013;BME280;12220;50.194;18.948;2023-06-05T03:43:34;102342.34;;;11.58;54.22
24013;BME280;12220;50.194;18.948;2023-06-05T03:45:45;102337.96;;;11.54;54.27
24013;BME280;12220;50.194;18.948;2023-06-05T03:47:50;102335.23;;;11.54;54.40
24013;BME280;12220;50.194;18.948;2023-06-05T03:49:54;102347.95;;;11.55;54.49
24013;BME280;12220;50.194;18.948;2023-06-05T03:51:56;102335.14;;;11.55;54.57
24013;BME280;12220;50.194;18.948;2023-06-05T03:54:04;102345.09;;;11.58;54.60
24013;BME280;12220;50.194;18.948;2023-06-05T03:56:06;102341.28;;;11.60;54.60
24013;BME280;12220;50.194;18.948;2023-06-05T03:58:17;102344.86;;;11.62;54.69
24013;BME280;12220;50.194;18.948;2023-06-05T04:00:18;102350.27;;;11.64;54.77
24013;BME280;12220;50.194;18.948;2023-06-05T04:02:22;102357.47;;;11.66;54.90
24013;BME280;12220;50.194;18.948;2023-06-05T04:04:23;102349.16;;;11.68;54.87
24013;BME280;12220;50.194;18.948;2023-06-05T04:06:26;102348.09;;;11.71;54.96
24013;BME280;12220;50.194;18.948;2023-06-05T04:08:30;102350.63;;;11.75;55.13
24013;BME280;12220;50.194;18.948;2023-06-05T04:10:33;102344.84;;;11.81;55.21
24013;BME280;12220;50.194;18.948;2023-06-05T04:12:34;102347.35;;;11.86;55.23
24013;BME280;12220;50.194;18.948;2023-06-05T04:14:36;102362.70;;;11.90;55.25
24013;BME280;12220;50.194;18.948;2023-06-05T04:16:40;102330.56;;;11.92;55.23
24013;BME280;12220;50.194;18.948;2023-06-05T04:18:46;102336.84;;;11.96;55.17
24013;BME280;12220;50.194;18.948;2023-06-05T04:20:47;102338.52;;;11.98;55.24
24013;BME280;12220;50.194;18.948;2023-06-05T04:22:49;102329.16;;;12.02;55.30
24013;BME280;12220;50.194;18.948;2023-06-05T04:24:54;102339.91;;;12.07;55.34
24013;BME280;12220;50.194;18.948;2023-06-05T04:27:01;102331.46;;;12.12;55.29
24013;BME280;12220;50.194;18.948;2023-06-05T04:29:04;102339.53;;;12.15;55.35
24013;BME280;12220;50.194;18.948;2023-06-05T04:31:15;102332.91;;;12.19;55.42
24013;BME280;12220;50.194;18.948;2023-06-05T04:33:19;102329.09;;;12.21;55.45
24013;BME280;12220;50.194;18.948;2023-06-05T04:35:22;102340.91;;;12.24;55.53
24013;BME280;12220;50.194;18.948;2023-06-05T04:37:23;102331.63;;;12.26;55.63
24013;BME280;12220;50.194;18.948;2023-06-05T04:39:25;102335.09;;;12.30;55.78
24013;BME280;12220;50.194;18.948;2023-06-05T04:41:26;102333.14;;;12.32;55.89
24013;BME280;12220;50.194;18.948;2023-06-05T04:43:35;102330.26;;;12.35;55.96
24013;BME280;12220;50.194;18.948;2023-06-05T04:45:36;102336.55;;;12.37;56.06
24013;BME280;12220;50.194;18.948;2023-06-05T04:47:43;102334.47;;;12.42;56.15
24013;BME280;12220;50.194;18.948;2023-06-05T04:49:45;102339.80;;;12.45;56.14
24013;BME280;12220;50.194;18.948;2023-06-05T04:51:50;102333.14;;;12.49;56.12
24013;BME280;12220;50.194;18.948;2023-06-05T04:53:51;102340.26;;;12.53;56.17
24013;BME280;12220;50.194;18.948;2023-06-05T04:55:54;102331.77;;;12.58;56.25
24013;BME280;12220;50.194;18.948;2023-06-05T04:57:56;102333.30;;;12.64;56.39
24013;BME280;12220;50.194;18.948;2023-06-05T05:00:06;102339.38;;;12.70;56.44
24013;BME280;12220;50.194;18.948;2023-06-05T05:02:11;102339.94;;;12.77;56.50
24013;BME280;12220;50.194;18.948;2023-06-05T05:04:12;102328.61;;;12.83;56.55
24013;BME280;12220;50.194;18.948;2023-06-05T05:06:16;102338.38;;;12.89;56.59
24013;BME280;12220;50.194;18.948;2023-06-05T05:08:20;102346.20;;;12.97;56.53
24013;BME280;12220;50.194;18.948;2023-06-05T05:10:23;102333.98;;;13.02;56.58
24013;BME280;12220;50.194;18.948;2023-06-05T05:12:26;102334.51;;;13.09;56.63
24013;BME280;12220;50.194;18.948;2023-06-05T05:14:29;102336.04;;;13.15;56.62
24013;BME280;12220;50.194;18.948;2023-06-05T05:16:34;102342.01;;;13.23;56.69
24013;BME280;12220;50.194;18.948;2023-06-05T05:18:38;102332.53;;;13.29;56.65
24013;BME280;12220;50.194;18.948;2023-06-05T05:20:41;102334.78;;;13.38;56.97
24013;BME280;12220;50.194;18.948;2023-06-05T05:22:42;102328.95;;;13.44;57.10
24013;BME280;12220;50.194;18.948;2023-06-05T05:24:49;102342.18;;;13.53;57.10
24013;BME280;12220;50.194;18.948;2023-06-05T05:26:52;102325.30;;;13.59;57.10
24013;BME280;12220;50.194;18.948;2023-06-05T05:28:53;102355.95;;;13.69;57.21
24013;BME280;12220;50.194;18.948;2023-06-05T05:30:54;102325.21;;;13.77;57.21
24013;BME280;12220;50.194;18.948;2023-06-05T05:33:05;102331.96;;;13.87;57.25
24013;BME280;12220;50.194;18.948;2023-06-05T05:35:09;102328.77;;;13.95;57.40
24013;BME280;12220;50.194;18.948;2023-06-05T05:37:11;102331.94;;;14.03;57.55
24013;BME280;12220;50.194;18.948;2023-06-05T05:39:13;102331.31;;;14.14;57.55
24013;BME280;12220;50.194;18.948;2023-06-05T05:41:19;102329.87;;;14.23;57.53
24013;BME280;12220;50.194;18.948;2023-06-05T05:43:22;102331.18;;;14.32;57.68
24013;BME280;12220;50.194;18.948;2023-06-05T05:45:24;102330.61;;;14.41;57.48
24013;BME280;12220;50.194;18.948;2023-06-05T05:47:25;102335.35;;;14.53;57.29
24013;BME280;12220;50.194;18.948;2023-06-05T05:49:34;102322.96;;;14.60;57.07
24013;BME280;12220;50.194;18.948;2023-06-05T05:51:35;102318.68;;;14.71;57.04
24013;BME280;12220;50.194;18.948;2023-06-05T05:53:37;102326.21;;;14.83;56.80
24013;BME280;12220;50.194;18.948;2023-06-05T05:55:38;102326.41;;;14.94;56.85
24013;BME280;12220;50.194;18.948;2023-06-05T05:57:49;102158.51;;;14.02;56.38
24013;BME280;12220;50.194;18.948;2023-06-05T05:59:51;102332.21;;;15.19;56.16
24013;BME280;12220;50.194;18.948;2023-06-05T06:01:52;102325.04;;;15.30;55.82
24013;BME280;12220;50.194;18.948;2023-06-05T06:03:54;102325.91;;;15.45;55.62
24013;BME280;12220;50.194;18.948;2023-06-05T06:06:04;102324.98;;;15.59;55.43
24013;BME280;12220;50.194;18.948;2023-06-05T06:08:08;102331.55;;;15.71;55.24
24013;BME280;12220;50.194;18.948;2023-06-05T06:10:12;102331.77;;;15.82;55.07
24013;BME280;12220;50.194;18.948;2023-06-05T06:12:15;102333.83;;;15.93;54.82
24013;BME280;12220;50.194;18.948;2023-06-05T06:14:19;102339.48;;;16.04;54.65
24013;BME280;12220;50.194;18.948;2023-06-05T06:16:21;102336.88;;;16.16;54.58
24013;BME280;12220;50.194;18.948;2023-06-05T06:18:22;102334.16;;;16.29;54.50
24013;BME280;12220;50.194;18.948;2023-06-05T06:20:25;102331.33;;;16.43;54.35
24013;BME280;12220;50.194;18.948;2023-06-05T06:22:38;102328.37;;;16.59;54.06
24013;BME280;12220;50.194;18.948;2023-06-05T06:24:43;102332.04;;;16.72;53.89
24013;BME280;12220;50.194;18.948;2023-06-05T06:26:46;102330.09;;;16.87;53.59
24013;BME280;12220;50.194;18.948;2023-06-05T06:28:47;102328.22;;;17.01;53.46
24013;BME280;12220;50.194;18.948;2023-06-05T06:30:50;102328.98;;;17.16;53.22
24013;BME280;12220;50.194;18.948;2023-06-05T06:32:52;102325.30;;;17.28;52.88
24013;BME280;12220;50.194;18.948;2023-06-05T06:34:57;102328.73;;;17.45;52.45
24013;BME280;12220;50.194;18.948;2023-06-05T06:36:58;102328.55;;;17.59;52.13
24013;BME280;12220;50.194;18.948;2023-06-05T06:39:05;102325.52;;;17.75;51.70
24013;BME280;12220;50.194;18.948;2023-06-05T06:41:06;102330.91;;;17.89;51.37
24013;BME280;12220;50.194;18.948;2023-06-05T06:43:10;102326.13;;;18.04;51.03
24013;BME280;12220;50.194;18.948;2023-06-05T06:45:13;102325.04;;;18.18;50.63
24013;BME280;12220;50.194;18.948;2023-06-05T06:47:20;102329.66;;;18.31;50.28
24013;BME280;12220;50.194;18.948;2023-06-05T06:49:21;102322.14;;;18.44;50.02
24013;BME280;12220;50.194;18.948;2023-06-05T06:51:23;102314.74;;;18.56;49.64
24013;BME280;12220;50.194;18.948;2023-06-05T06:53:25;102318.42;;;18.68;49.56
24013;BME280;12220;50.194;18.948;2023-06-05T06:55:34;102320.97;;;18.82;49.33
24013;BME280;12220;50.194;18.948;2023-06-05T06:57:37;102143.28;;;17.91;49.06
24013;BME280;12220;50.194;18.948;2023-06-05T06:59:38;102321.80;;;19.07;48.93
24013;BME280;12220;50.194;18.948;2023-06-05T07:01:46;102319.04;;;19.18;48.63
24013;BME280;12220;50.194;18.948;2023-06-05T07:03:50;102324.34;;;19.32;48.53
24013;BME280;12220;50.194;18.948;2023-06-05T07:05:51;102324.19;;;19.45;48.02
24013;BME280;12220;50.194;18.948;2023-06-05T07:07:52;102321.27;;;19.58;48.09
24013;BME280;12220;50.194;18.948;2023-06-05T07:09:54;102320.13;;;19.72;47.95
24013;BME280;12220;50.194;18.948;2023-06-05T07:12:05;102332.88;;;19.86;47.58
24013;BME280;12220;50.194;18.948;2023-06-05T07:14:07;102326.56;;;19.95;47.26
24013;BME280;12220;50.194;18.948;2023-06-05T07:16:10;102328.41;;;20.06;46.92
24013;BME280;12220;50.194;18.948;2023-06-05T07:18:16;102325.59;;;20.17;46.85
24013;BME280;12220;50.194;18.948;2023-06-05T07:20:19;102329.34;;;20.28;46.86
24013;BME280;12220;50.194;18.948;2023-06-05T07:22:21;102329.44;;;20.37;46.88
24013;BME280;12220;50.194;18.948;2023-06-05T07:24:28;102330.26;;;20.49;46.66
24013;BME280;12220;50.194;18.948;2023-06-05T07:26:30;102322.88;;;20.60;46.04
24013;BME280;12220;50.194;18.948;2023-06-05T07:28:34;102327.37;;;20.72;46.06
24013;BME280;12220;50.194;18.948;2023-06-05T07:30:36;102324.52;;;20.83;45.71
24013;BME280;12220;50.194;18.948;2023-06-05T07:32:37;102320.04;;;20.92;45.50
24013;BME280;12220;50.194;18.948;2023-06-05T07:34:39;102313.66;;;21.01;45.26
24013;BME280;12220;50.194;18.948;2023-06-05T07:36:50;102316.34;;;21.13;45.11
24013;BME280;12220;50.194;18.948;2023-06-05T07:38:52;102306.26;;;21.21;45.24
24013;BME280;12220;50.194;18.948;2023-06-05T07:40:54;102308.23;;;21.31;45.07
24013;BME280;12220;50.194;18.948;2023-06-05T07:42:59;102306.37;;;21.41;44.98
24013;BME280;12220;50.194;18.948;2023-06-05T07:45:04;102314.37;;;21.55;44.60
24013;BME280;12220;50.194;18.948;2023-06-05T07:47:06;102316.29;;;21.65;44.12
24013;BME280;12220;50.194;18.948;2023-06-05T07:49:08;102310.75;;;21.74;44.12
24013;BME280;12220;50.194;18.948;2023-06-05T07:51:10;102306.08;;;21.85;43.96
24013;BME280;12220;50.194;18.948;2023-06-05T07:53:18;102306.97;;;21.95;43.81
24013;BME280;12220;50.194;18.948;2023-06-05T07:55:22;102302.73;;;22.01;43.18
24013;BME280;12220;50.194;18.948;2023-06-05T07:57:23;102302.13;;;22.07;42.32
24013;BME280;12220;50.194;18.948;2023-06-05T07:59:29;102295.67;;;22.16;42.34
24013;BME280;12220;50.194;18.948;2023-06-05T08:01:34;102293.05;;;22.24;42.31
24013;BME280;12220;50.194;18.948;2023-06-05T08:03:37;102296.89;;;22.33;41.07
24013;BME280;12220;50.194;18.948;2023-06-05T08:05:42;102296.90;;;22.43;40.99
24013;BME280;12220;50.194;18.948;2023-06-05T08:07:44;102284.98;;;22.51;40.33
24013;BME280;12220;50.194;18.948;2023-06-05T08:09:48;102288.48;;;22.62;39.95
24013;BME280;12220;50.194;18.948;2023-06-05T08:11:49;102282.17;;;22.70;39.78
24013;BME280;12220;50.194;18.948;2023-06-05T08:13:51;102287.86;;;22.78;39.75
24013;BME280;12220;50.194;18.948;2023-06-05T08:15:52;102289.47;;;22.91;39.38
24013;BME280;12220;50.194;18.948;2023-06-05T08:18:03;102291.19;;;23.02;38.85
24013;BME280;12220;50.194;18.948;2023-06-05T08:20:05;102286.74;;;23.09;38.29
24013;BME280;12220;50.194;18.948;2023-06-05T08:22:09;102287.07;;;23.15;37.71
24013;BME280;12220;50.194;18.948;2023-06-05T08:24:10;102277.04;;;23.23;37.89
24013;BME280;12220;50.194;18.948;2023-06-05T08:26:21;102283.61;;;23.31;37.50
24013;BME280;12220;50.194;18.948;2023-06-05T08:28:22;102279.17;;;23.39;37.46
24013;BME280;12220;50.194;18.948;2023-06-05T08:30:24;102285.74;;;23.47;37.24
24013;BME280;12220;50.194;18.948;2023-06-05T08:32:25;102281.99;;;23.57;37.23
24013;BME280;12220;50.194;18.948;2023-06-05T08:34:32;102280.19;;;23.65;36.97
24013;BME280;12220;50.194;18.948;2023-06-05T08:36:34;102286.04;;;23.72;36.34
24013;BME280;12220;50.194;18.948;2023-06-05T08:38:36;102285.09;;;23.81;36.57
24013;BME280;12220;50.194;18.948;2023-06-05T08:40:39;102276.09;;;23.88;36.32
24013;BME280;12220;50.194;18.948;2023-06-05T08:42:47;102291.04;;;23.96;36.25
24013;BME280;12220;50.194;18.948;2023-06-05T08:44:49;102284.64;;;24.04;36.43
24013;BME280;12220;50.194;18.948;2023-06-05T08:46:52;102280.34;;;24.10;36.14
24013;BME280;12220;50.194;18.948;2023-06-05T08:48:57;102142.10;;;23.30;36.19
24013;BME280;12220;50.194;18.948;2023-06-05T08:51:02;102281.38;;;24.27;35.95
24013;BME280;12220;50.194;18.948;2023-06-05T08:53:05;102280.03;;;24.31;35.54
24013;BME280;12220;50.194;18.948;2023-06-05T08:55:07;102279.53;;;24.35;35.24
24013;BME280;12220;50.194;18.948;2023-06-05T08:57:09;102280.65;;;24.43;35.51
24013;BME280;12220;50.194;18.948;2023-06-05T08:59:17;102289.59;;;24.46;35.38
24013;BME280;12220;50.194;18.948;2023-06-05T09:01:21;102281.92;;;24.48;35.41
24013;BME280;12220;50.194;18.948;2023-06-05T09:03:23;102278.63;;;24.53;35.07
24013;BME280;12220;50.194;18.948;2023-06-05T09:05:25;102273.31;;;24.60;35.08
24013;BME280;12220;50.194;18.948;2023-06-05T09:07:33;102284.02;;;24.64;34.68
24013;BME280;12220;50.194;18.948;2023-06-05T09:09:34;102286.15;;;24.70;34.84
24013;BME280;12220;50.194;18.948;2023-06-05T09:11:36;102283.58;;;24.77;34.41
24013;BME280;12220;50.194;18.948;2023-06-05T09:13:46;102283.95;;;24.82;34.66
24013;BME280;12220;50.194;18.948;2023-06-05T09:15:50;102280.48;;;24.88;34.81
24013;BME280;12220;50.194;18.948;2023-06-05T09:20:07;102300.33;;;24.95;34.14
24013;BME280;12220;50.194;18.948;2023-06-05T09:22:10;102279.51;;;24.98;34.08
24013;BME280;12220;50.194;18.948;2023-06-05T09:24:17;102279.54;;;25.06;34.38
24013;BME280;12220;50.194;18.948;2023-06-05T09:26:20;102272.39;;;25.12;34.49
24013;BME280;12220;50.194;18.948;2023-06-05T09:28:22;102278.05;;;25.20;34.45
24013;BME280;12220;50.194;18.948;2023-06-05T09:30:24;102272.81;;;25.25;34.28
24013;BME280;12220;50.194;18.948;2023-06-05T09:32:27;102277.04;;;25.29;34.31
24013;BME280;12220;50.194;18.948;2023-06-05T09:36:45;102268.37;;;25.40;34.25
24013;BME280;12220;50.194;18.948;2023-06-05T09:38:52;102264.18;;;25.45;33.61
24013;BME280;12220;50.194;18.948;2023-06-05T09:41:04;102267.69;;;25.47;33.83
24013;BME280;12220;50.194;18.948;2023-06-05T09:43:15;102267.20;;;25.51;33.68
24013;BME280;12220;50.194;18.948;2023-06-05T09:47:46;102265.95;;;25.54;33.46
24013;BME280;12220;50.194;18.948;2023-06-05T09:49:48;102257.38;;;25.55;33.64
24013;BME280;12220;50.194;18.948;2023-06-05T09:51:49;102253.36;;;25.58;33.67
24013;BME280;12220;50.194;18.948;2023-06-05T09:53:50;102245.33;;;25.63;33.28
24013;BME280;12220;50.194;18.948;2023-06-05T09:56:01;102252.66;;;25.64;33.08
24013;BME280;12220;50.194;18.948;2023-06-05T09:58:04;102256.20;;;25.66;33.29
24013;BME280;12220;50.194;18.948;2023-06-05T10:00:15;102252.00;;;25.70;33.38
24013;BME280;12220;50.194;18.948;2023-06-05T10:02:17;102251.31;;;25.77;33.40
24013;BME280;12220;50.194;18.948;2023-06-05T10:04:23;102245.19;;;25.81;33.32
24013;BME280;12220;50.194;18.948;2023-06-05T10:06:29;102255.02;;;25.85;33.04
24013;BME280;12220;50.194;18.948;2023-06-05T10:08:34;102251.69;;;25.90;32.63
24013;BME280;12220;50.194;18.948;2023-06-05T10:10:36;102239.94;;;25.95;32.47
24013;BME280;12220;50.194;18.948;2023-06-05T10:12:39;102241.70;;;25.96;32.17
24013;BME280;12220;50.194;18.948;2023-06-05T10:14:42;102251.88;;;25.97;32.29
24013;BME280;12220;50.194;18.948;2023-06-05T10:16:49;102244.56;;;26.04;32.53
24013;BME280;12220;50.194;18.948;2023-06-05T10:18:54;102239.11;;;26.10;32.31
24013;BME280;12220;50.194;18.948;2023-06-05T10:21:00;102244.73;;;26.10;31.98
24013;BME280;12220;50.194;18.948;2023-06-05T10:23:03;102236.13;;;26.12;32.17
24013;BME280;12220;50.194;18.948;2023-06-05T10:25:08;102238.58;;;26.15;32.21
24013;BME280;12220;50.194;18.948;2023-06-05T10:29:35;102230.70;;;26.19;32.07
24013;BME280;12220;50.194;18.948;2023-06-05T10:38:38;102233.49;;;26.27;32.14
24013;BME280;12220;50.194;18.948;2023-06-05T10:40:41;102231.23;;;26.31;32.14
24013;BME280;12220;50.194;18.948;2023-06-05T10:42:43;102225.98;;;26.36;31.98
24013;BME280;12220;50.194;18.948;2023-06-05T10:44:44;102222.63;;;26.40;31.88
24013;BME280;12220;50.194;18.948;2023-06-05T10:46:51;102222.09;;;26.45;31.88
24013;BME280;12220;50.194;18.948;2023-06-05T10:49:08;102227.17;;;26.50;32.06
24013;BME280;12220;50.194;18.948;2023-06-05T10:55:41;102221.19;;;26.69;31.86
24013;BME280;12220;50.194;18.948;2023-06-05T11:00:06;102226.98;;;26.84;31.67
24013;BME280;12220;50.194;18.948;2023-06-05T11:02:22;102221.50;;;26.91;31.70
24013;BME280;12220;50.194;18.948;2023-06-05T11:04:24;102226.60;;;26.95;31.05
24013;BME280;12220;50.194;18.948;2023-06-05T11:06:27;102223.25;;;27.00;31.35